NCAR-RAP Real-Time Weather Data

Output produced by METARs form (23 January 2018  15:49 UTC)
found at http://weather.rap.ucar.edu/surface/
 
RJCH 231100Z 28017KT 9999 -SHSN FEW020 SCT030 BKN045 M02/M07 Q1000
RJCH 231000Z 29018G30KT 9999 -SHSN FEW015 SCT025 BKN030 M02/M06 Q0999
RJCH 230902Z 30020G30KT 270V340 9999 -SHSN FEW012 SCT025 M01/M06 Q0997 RMK 1ST012 4CU025 A2946 P/RR
RJCH 230900Z 30020KT 270V340 9999 -SHSN FEW012 SCT025 M01/M05 Q0997
RJCH 230800Z 28025G36KT 9999 -SHSN FEW005 SCT015 BKN025 M00/M04 Q0995
RJCH 230714Z 26028G38KT 9999 -SHRASN FEW003 BKN015 BKN025 02/M01 Q0993 RMK 1ST003 5ST015 7CU025 A2933
RJCH 230708Z 25030KT 9999 -SHRASN FEW003 BKN015 BKN025 04/01 Q0992 RMK 1ST003 5ST015 7CU025 A2931
RJCH 230701Z 18018G29KT 150V210 9999 -SHRA FEW003 BKN015 BKN025 04/02 Q0992 RMK 1ST003 5ST015 7CU025 A2930
RJCH 230700Z 18019KT 150V210 9999 -SHRA FEW003 BKN015 BKN025 04/02 Q0992
RJCH 230629Z 16020G31KT 9999 -SHRASN FEW003 BKN010 BKN030 02/01 Q0992 RMK 1ST003 5ST010 7CU030 A2930
RJCH 230616Z 17022G33KT 5000 SHRASN BR FEW003 BKN006 BKN008 02/02 Q0992 RMK 1ST003 5ST006 7ST008 A2931
RJCH 230606Z 16021G32KT 3500 SHSNRA FEW003 BKN005 BKN007 02/02 Q0992 RMK 1ST003 5ST005 7ST007 A2931
RJCH 230600Z 14024KT 3500 SHSNRA FEW003 BKN005 BKN007 02/01 Q0992
RJCH 230538Z 13028G39KT 8000 -SHRASN FEW003 BKN005 BKN010 02/01 Q0992 RMK 1ST003 5ST005 7ST010 A2930
RJCH 230511Z 14026G38KT 7000 SHSNRA FEW003 BKN005 BKN010 02/01 Q0992 RMK 1ST003 5ST005 7ST010 A2929
RJCH 230500Z 14025KT 5000 SHSNRA FEW003 BKN007 BKN010 02/01 Q0992
RJCH 230432Z 14026G36KT 4500 SHSNRA FEW003 BKN005 BKN010 02/01 Q0992 RMK 1ST003 5ST005 7ST010 A2930
RJCH 230411Z 13030G40KT 4900 -SHRASN BR FEW004 BKN007 BKN010 02/01 Q0991 RMK 1ST004 5ST007 7ST010 A2929
RJCH 230409Z 13030KT 4900 -SHRASN BR FEW004 BKN007 BKN010 02/01 Q0992 RMK 1ST004 5ST007 7ST010 A2929
RJCH 230400Z 12030G40KT 5000 -SHRASN BR FEW004 BKN007 BKN010 02/01 Q0991
RJCH 230334Z 12031G44KT 5000 -SHRASN BR FEW005 SCT007 BKN010 02/00 Q0992 RMK 1ST005 4ST007 7ST010 A2930 P/FR
RJCH 230316Z 12029G40KT 4000 -SHRASN BR FEW004 BKN007 BKN012 02/01 Q0992 RMK 1ST004 5ST007 7ST012 A2931 P/FR
RJCH 230300Z 11031KT 3200 -SHSN FEW004 BKN007 BKN010 01/M00 Q0993
RJCH 230248Z 11031G41KT 4000 -SHSN FEW005 BKN008 BKN010 01/M00 Q0993 RMK 1ST005 5ST008 7ST010 A2935
RJCH 230238Z 11032KT 4900 -SHSNRA FEW005 BKN008 BKN010 01/M00 Q0994 RMK 1ST005 5ST008 7ST010 A2935
RJCH 230200Z 11033G44KT 5000 -SHSNRA FEW005 BKN010 BKN012 01/00 Q0995
RJCH 230136Z 11032G42KT 5000 -SHRASN FEW005 BKN010 BKN012 01/01 Q0996 RMK 1ST005 5ST010 7ST012 A2943 P/FR
RJCH 230127Z 11031G42KT 4000 -SHSNRA FEW004 BKN007 BKN010 01/00 Q0997 RMK 1ST004 5ST007 7ST010 A2944 P/FR
RJCH 230115Z 11030KT 3200 -SHSNRA FEW003 BKN007 BKN010 01/00 Q0997 RMK 1ST003 5ST007 7ST010 A2946 P/FR
RJCH 230100Z 11030G41KT 2400 R12/2000N -SHSNRA FEW003 BKN006 BKN010 01/00 Q0998
RJCH 230035Z 12027G37KT 1000 R12/1100VP2000D SHSNRA FEW002 BKN004 BKN008 01/00 Q0999 RMK 1ST002 5ST004 7ST008 A2951
RJCH 230032Z 12027G37KT 1500 R12/1500VP2000D SHSNRA FEW003 BKN005 BKN010 01/00 Q0999 RMK 1ST003 5ST005 7ST010 A2952
RJCH 230022Z 13025G36KT 3200 R12/2000N -SHSNRA FEW003 BKN006 BKN012 01/01 Q0999 RMK 1ST003 5ST006 7ST012 A2953
RJCH 230015Z 12026G37KT 2400 R12/2000N -SHSNRA FEW003 BKN005 BKN010 01/01 Q1000 RMK 1ST003 5ST005 7ST010 A2953
RJCH 230003Z 12025G35KT 2000 R12/2000N -SHSNRA FEW002 BKN004 BKN007 01/00 Q1000 RMK 1ST002 5ST004 7ST007 A2953
RJCH 230000Z 12025KT 2300 R12/2000N -SHSNRA FEW002 BKN005 BKN008 01/00 Q1000
RJCH 222345Z 12025G35KT 3200 -SHSNRA FEW003 BKN007 BKN012 01/00 Q1000 RMK 1ST003 5ST007 7ST012 A2953
RJCH 222339Z 12026KT 3100 -SHSNRA FEW003 BKN006 BKN010 01/00 Q1000 RMK 1ST003 5ST006 7ST010 A2954
RJCH 222325Z 12024G36KT 4900 -SHSNRA FEW003 BKN006 BKN010 01/00 Q1000 RMK 1ST003 5ST006 7ST010 A2955
RJCH 222312Z 12025G35KT 5000 -SHSNRA FEW004 BKN007 BKN012 01/00 Q1000 RMK 1ST004 5ST007 7ST012 A2956
RJCH 222300Z 12028G38KT 3200 -SHSNRA FEW003 BKN006 BKN012 01/00 Q1001
RJCH 222247Z 12026G36KT 1600 R12/1500VP2000N -SHSNRA FEW003 BKN005 BKN010 01/00 Q1001 RMK 1ST003 5ST005 7ST010 A2956
RJCH 222234Z 12028G38KT 1500 R12/1600VP2000N SHSNRA FEW002 BKN004 BKN007 01/00 Q1001 RMK 1ST002 5ST004 7ST007 A2958
RJCH 222223Z 12024G39KT 2300 R12/2000N -SHSNRA FEW002 BKN005 BKN008 01/00 Q1001 RMK 1ST002 5ST005 7ST008 A2959
RJCH 222215Z 13027G37KT 3100 -SHSNRA FEW003 BKN006 BKN010 02/00 Q1002 RMK 1ST003 5ST006 7ST010 A2959
RJCH 222202Z 12025G35KT 3200 -SHSNRA FEW003 BKN007 BKN010 01/00 Q1002 RMK 1ST003 5ST007 7ST010 A2959
RJCH 222200Z 12026KT 3000 -SHSNRA FEW002 BKN006 BKN010 01/00 Q1002
RJCH 222115Z 11025G35KT 9999 -SHRASN FEW004 BKN008 BKN012 02/01 Q1002 RMK 1ST004 5ST008 7ST012 A2961
RJCH 222110Z 11026KT 9999 -SHRASN FEW003 BKN008 BKN012 01/00 Q1003 RMK 1ST003 5ST008 7ST012 A2962
RJCH 221100Z 05009KT 9999 FEW010 SCT020 BKN035 M04/M09 Q1016
RJCH 221000Z 05006KT 9999 -SHSN FEW005 SCT015 BKN030 M04/M09 Q1017
RJCH 220900Z 05005KT 9999 FEW035 SCT045 BKN050 M05/M10 Q1017
RJCH 220800Z 35003KT 9999 FEW040 SCT060 BKN160 M05/M10 Q1017
RJCH 220700Z 35004KT 330V030 9999 FEW035 BKN090 M04/M11 Q1017
RJCH 220600Z 35005KT 310V010 9999 FEW025 SCT045 BKN060 M03/M10 Q1018
RJCH 220500Z 31006KT 9999 FEW025 SCT040 BKN070 M03/M09 Q1019
RJCH 220400Z 32009KT 9999 VCSH FEW005 SCT030 BKN040 M04/M08 Q1019
RJCH 220300Z 30006KT 9999 -SHSN FEW006 SCT030 BKN045 M04/M08 Q1020
RJCH 220200Z 30004KT 9999 -SHSN FEW030 SCT035 M05/M08 Q1021
RJCH 220100Z 32004KT 9999 FEW030 M06/M09 Q1022
RJCH 220000Z 35003KT 300V020 9999 FEW030 SCT040 M07/M11 Q1021
RJCH 212300Z 02006KT 9999 FEW025 SCT030 M12/M13 Q1021
RJCH 212200Z 36006KT 9999 R12/1600VP2000N FEW025 SCT040 M11/M12 Q1021
RJCH 212110Z 34003KT 310V020 9999 -SHSN FEW018 SCT025 BKN035 M10/M12 Q1021 RMK 1ST018 3CU025 5CU035 A3016
RJCH 211100Z 30012KT 6000 -SHSN FEW005 SCT010 BKN025 M08/M11 Q1018
RJCH 211049Z 30015G25KT 5000 -SHSN FEW005 SCT010 BKN030 M08/M11 Q1018 RMK 1ST005 4ST010 7CU030 A3007
RJCH 211047Z 30017KT 3200 -SHSN FEW003 SCT010 BKN020 M08/M11 Q1018 RMK 1ST003 4ST010 7CU020 A3008
RJCH 211040Z 31018KT 3100 -SHSN FEW002 SCT010 BKN015 M08/M13 Q1018 RMK 1ST002 4ST010 7ST015 A3007
RJCH 211000Z 29014KT 9999 -SHSN FEW010 SCT025 BKN050 M07/M14 Q1018
RJCH 210909Z 29020G31KT 9999 -SHSN FEW007 SCT030 BKN045 M07/M14 Q1017 RMK 1ST007 3CU030 6CU045 A3004
RJCH 210900Z 29016KT 9999 -SHSN FEW006 SCT025 BKN050 M07/M13 Q1017
RJCH 210800Z 29014KT 8000 -SHSN FEW004 SCT015 BKN025 M07/M11 Q1016
RJCH 210700Z 29018G29KT 8000 -SHSN FEW003 SCT010 BKN025 M06/M12 Q1015
RJCH 210600Z 30021G31KT 9999 -SHSN FEW004 SCT025 BKN040 M04/M11 Q1014
RJCH 210506Z 29017G32KT 9999 -SHSN FEW005 SCT020 BKN025 M03/M10 Q1013 RMK 1ST005 3CU020 5CU025 A2993
RJCH 210500Z 29016KT 9999 -SHSN FEW005 SCT025 BKN030 M03/M10 Q1013
RJCH 210415Z 29020G30KT 9999 FEW010 SCT030 BKN040 M03/M09 Q1013 RMK 1ST010 3CU030 6CU040 A2991
RJCH 210400Z 29019KT 9999 FEW010 SCT040 BKN050 M03/M09 Q1013